sensor_id;sensor_type;location;lat;lon;timestamp;P1;durP1;ratioP1;P2;durP2;ratioP2
66095;SDS011;53861;53.422;14.530;2023-08-31T00:01:32;12.52;;;6.68;;
66095;SDS011;53861;53.422;14.530;2023-08-31T00:03:59;11.63;;;6.65;;
66095;SDS011;53861;53.422;14.530;2023-08-31T00:06:27;11.23;;;6.72;;
66095;SDS011;53861;53.422;14.530;2023-08-31T00:08:54;15.75;;;7.18;;
66095;SDS011;53861;53.422;14.530;2023-08-31T00:11:21;12.68;;;6.72;;
66095;SDS011;53861;53.422;14.530;2023-08-31T00:13:49;11.48;;;6.68;;
66095;SDS011;53861;53.422;14.530;2023-08-31T00:16:20;18.33;;;6.57;;
66095;SDS011;53861;53.422;14.530;2023-08-31T00:18:51;12.38;;;6.93;;
66095;SDS011;53861;53.422;14.530;2023-08-31T00:21:18;17.25;;;6.80;;
66095;SDS011;53861;53.422;14.530;2023-08-31T00:23:46;11.68;;;6.95;;
66095;SDS011;53861;53.422;14.530;2023-08-31T00:26:14;13.73;;;6.75;;
66095;SDS011;53861;53.422;14.530;2023-08-31T00:28:41;12.38;;;6.93;;
66095;SDS011;53861;53.422;14.530;2023-08-31T00:31:09;11.30;;;6.90;;
66095;SDS011;53861;53.422;14.530;2023-08-31T00:33:38;16.05;;;6.90;;
66095;SDS011;53861;53.422;14.530;2023-08-31T00:36:06;14.63;;;7.53;;
66095;SDS011;53861;53.422;14.530;2023-08-31T00:38:34;14.38;;;7.55;;
66095;SDS011;53861;53.422;14.530;2023-08-31T00:41:01;14.20;;;7.75;;
66095;SDS011;53861;53.422;14.530;2023-08-31T00:43:28;14.95;;;7.03;;
66095;SDS011;53861;53.422;14.530;2023-08-31T00:45:56;14.07;;;6.97;;
66095;SDS011;53861;53.422;14.530;2023-08-31T00:48:24;11.80;;;7.20;;
66095;SDS011;53861;53.422;14.530;2023-08-31T00:50:53;11.88;;;6.85;;
66095;SDS011;53861;53.422;14.530;2023-08-31T00:53:21;11.73;;;7.05;;
66095;SDS011;53861;53.422;14.530;2023-08-31T00:55:49;12.77;;;7.40;;
66095;SDS011;53861;53.422;14.530;2023-08-31T00:58:16;12.05;;;7.18;;
66095;SDS011;53861;53.422;14.530;2023-08-31T01:00:44;12.27;;;6.97;;
66095;SDS011;53861;53.422;14.530;2023-08-31T01:05:50;14.10;;;7.30;;
66095;SDS011;53861;53.422;14.530;2023-08-31T01:08:27;15.13;;;7.47;;
66095;SDS011;53861;53.422;14.530;2023-08-31T01:11:02;15.07;;;6.97;;
66095;SDS011;53861;53.422;14.530;2023-08-31T01:13:38;11.52;;;6.95;;
66095;SDS011;53861;53.422;14.530;2023-08-31T01:16:08;12.02;;;6.93;;
66095;SDS011;53861;53.422;14.530;2023-08-31T01:18:36;13.00;;;7.60;;
66095;SDS011;53861;53.422;14.530;2023-08-31T01:21:09;13.80;;;8.15;;
66095;SDS011;53861;53.422;14.530;2023-08-31T01:23:46;12.90;;;7.72;;
66095;SDS011;53861;53.422;14.530;2023-08-31T01:26:17;14.13;;;7.68;;
66095;SDS011;53861;53.422;14.530;2023-08-31T01:28:44;11.95;;;7.38;;
66095;SDS011;53861;53.422;14.530;2023-08-31T01:31:12;17.67;;;8.32;;
66095;SDS011;53861;53.422;14.530;2023-08-31T01:33:39;14.70;;;7.47;;
66095;SDS011;53861;53.422;14.530;2023-08-31T01:36:07;13.02;;;7.50;;
66095;SDS011;53861;53.422;14.530;2023-08-31T01:38:39;13.02;;;7.70;;
66095;SDS011;53861;53.422;14.530;2023-08-31T01:41:13;11.27;;;7.27;;
66095;SDS011;53861;53.422;14.530;2023-08-31T01:43:44;14.48;;;7.38;;
66095;SDS011;53861;53.422;14.530;2023-08-31T01:46:13;12.82;;;7.50;;
66095;SDS011;53861;53.422;14.530;2023-08-31T01:48:42;13.38;;;7.93;;
66095;SDS011;53861;53.422;14.530;2023-08-31T01:51:12;17.65;;;9.63;;
66095;SDS011;53861;53.422;14.530;2023-08-31T01:53:39;16.83;;;8.52;;
66095;SDS011;53861;53.422;14.530;2023-08-31T01:56:07;18.42;;;9.10;;
66095;SDS011;53861;53.422;14.530;2023-08-31T01:58:35;13.68;;;8.45;;
66095;SDS011;53861;53.422;14.530;2023-08-31T02:01:03;14.15;;;8.23;;
66095;SDS011;53861;53.422;14.530;2023-08-31T02:03:30;16.02;;;8.80;;
66095;SDS011;53861;53.422;14.530;2023-08-31T02:05:57;16.48;;;9.07;;
66095;SDS011;53861;53.422;14.530;2023-08-31T02:08:24;16.05;;;8.07;;
66095;SDS011;53861;53.422;14.530;2023-08-31T02:10:52;14.63;;;8.05;;
66095;SDS011;53861;53.422;14.530;2023-08-31T02:13:20;15.55;;;8.30;;
66095;SDS011;53861;53.422;14.530;2023-08-31T02:15:50;15.77;;;8.35;;
66095;SDS011;53861;53.422;14.530;2023-08-31T02:18:18;16.17;;;9.07;;
66095;SDS011;53861;53.422;14.530;2023-08-31T02:20:45;18.38;;;9.38;;
66095;SDS011;53861;53.422;14.530;2023-08-31T02:23:12;20.48;;;8.90;;
66095;SDS011;53861;53.422;14.530;2023-08-31T02:25:40;17.88;;;8.82;;
66095;SDS011;53861;53.422;14.530;2023-08-31T02:28:07;19.00;;;8.70;;
66095;SDS011;53861;53.422;14.530;2023-08-31T02:30:35;17.38;;;8.50;;
66095;SDS011;53861;53.422;14.530;2023-08-31T02:33:03;14.35;;;8.02;;
66095;SDS011;53861;53.422;14.530;2023-08-31T02:35:31;13.63;;;7.78;;
66095;SDS011;53861;53.422;14.530;2023-08-31T02:37:58;14.98;;;7.90;;
66095;SDS011;53861;53.422;14.530;2023-08-31T02:40:25;16.38;;;7.88;;
66095;SDS011;53861;53.422;14.530;2023-08-31T02:42:53;17.50;;;9.45;;
66095;SDS011;53861;53.422;14.530;2023-08-31T02:45:20;16.33;;;8.80;;
66095;SDS011;53861;53.422;14.530;2023-08-31T02:47:47;19.10;;;8.65;;
66095;SDS011;53861;53.422;14.530;2023-08-31T02:50:16;13.65;;;8.43;;
66095;SDS011;53861;53.422;14.530;2023-08-31T02:52:44;14.60;;;8.57;;
66095;SDS011;53861;53.422;14.530;2023-08-31T02:55:11;18.13;;;8.50;;
66095;SDS011;53861;53.422;14.530;2023-08-31T02:57:38;17.17;;;8.77;;
66095;SDS011;53861;53.422;14.530;2023-08-31T03:00:06;14.82;;;8.30;;
66095;SDS011;53861;53.422;14.530;2023-08-31T03:02:38;16.13;;;8.20;;
66095;SDS011;53861;53.422;14.530;2023-08-31T03:05:06;18.75;;;8.80;;
66095;SDS011;53861;53.422;14.530;2023-08-31T03:07:35;17.52;;;8.50;;
66095;SDS011;53861;53.422;14.530;2023-08-31T03:10:02;16.67;;;9.05;;
66095;SDS011;53861;53.422;14.530;2023-08-31T03:12:30;16.65;;;9.77;;
66095;SDS011;53861;53.422;14.530;2023-08-31T03:14:57;16.98;;;9.43;;
66095;SDS011;53861;53.422;14.530;2023-08-31T03:17:24;21.50;;;10.25;;
66095;SDS011;53861;53.422;14.530;2023-08-31T03:19:52;15.48;;;9.82;;
66095;SDS011;53861;53.422;14.530;2023-08-31T03:22:19;17.58;;;10.10;;
66095;SDS011;53861;53.422;14.530;2023-08-31T03:24:47;16.60;;;10.48;;
66095;SDS011;53861;53.422;14.530;2023-08-31T03:27:15;16.88;;;10.20;;
66095;SDS011;53861;53.422;14.530;2023-08-31T03:29:42;19.52;;;10.07;;
66095;SDS011;53861;53.422;14.530;2023-08-31T03:32:10;15.05;;;9.20;;
66095;SDS011;53861;53.422;14.530;2023-08-31T03:34:37;14.55;;;9.43;;
66095;SDS011;53861;53.422;14.530;2023-08-31T03:37:05;14.52;;;9.45;;
66095;SDS011;53861;53.422;14.530;2023-08-31T03:39:32;17.00;;;9.38;;
66095;SDS011;53861;53.422;14.530;2023-08-31T03:42:01;12.70;;;8.75;;
66095;SDS011;53861;53.422;14.530;2023-08-31T03:44:28;16.08;;;9.00;;
66095;SDS011;53861;53.422;14.530;2023-08-31T03:46:55;14.50;;;9.13;;
66095;SDS011;53861;53.422;14.530;2023-08-31T03:49:23;15.60;;;8.73;;
66095;SDS011;53861;53.422;14.530;2023-08-31T03:51:50;14.20;;;8.63;;
66095;SDS011;53861;53.422;14.530;2023-08-31T03:54:18;15.25;;;8.90;;
66095;SDS011;53861;53.422;14.530;2023-08-31T03:56:46;15.80;;;8.38;;
66095;SDS011;53861;53.422;14.530;2023-08-31T03:59:14;14.30;;;8.98;;
66095;SDS011;53861;53.422;14.530;2023-08-31T04:01:41;13.80;;;8.68;;
66095;SDS011;53861;53.422;14.530;2023-08-31T04:04:09;13.30;;;8.65;;
66095;SDS011;53861;53.422;14.530;2023-08-31T04:06:36;17.27;;;9.02;;
66095;SDS011;53861;53.422;14.530;2023-08-31T04:09:03;13.93;;;8.95;;
66095;SDS011;53861;53.422;14.530;2023-08-31T04:11:31;13.48;;;8.48;;
66095;SDS011;53861;53.422;14.530;2023-08-31T04:13:58;13.20;;;8.15;;
66095;SDS011;53861;53.422;14.530;2023-08-31T04:16:26;13.27;;;8.40;;
66095;SDS011;53861;53.422;14.530;2023-08-31T04:18:54;15.38;;;8.90;;
66095;SDS011;53861;53.422;14.530;2023-08-31T04:21:21;15.15;;;8.90;;
66095;SDS011;53861;53.422;14.530;2023-08-31T04:23:49;15.00;;;9.00;;
66095;SDS011;53861;53.422;14.530;2023-08-31T04:26:16;12.73;;;8.48;;
66095;SDS011;53861;53.422;14.530;2023-08-31T04:28:44;14.52;;;8.52;;
66095;SDS011;53861;53.422;14.530;2023-08-31T04:31:11;12.68;;;7.72;;
66095;SDS011;53861;53.422;14.530;2023-08-31T04:33:40;12.85;;;8.32;;
66095;SDS011;53861;53.422;14.530;2023-08-31T04:36:08;12.35;;;8.15;;
66095;SDS011;53861;53.422;14.530;2023-08-31T04:38:37;14.27;;;8.10;;
66095;SDS011;53861;53.422;14.530;2023-08-31T04:41:05;16.55;;;8.63;;
66095;SDS011;53861;53.422;14.530;2023-08-31T04:43:32;16.27;;;8.55;;
66095;SDS011;53861;53.422;14.530;2023-08-31T04:46:00;14.82;;;8.55;;
66095;SDS011;53861;53.422;14.530;2023-08-31T04:48:28;23.02;;;16.02;;
66095;SDS011;53861;53.422;14.530;2023-08-31T04:50:57;52.83;;;38.45;;
66095;SDS011;53861;53.422;14.530;2023-08-31T04:53:25;75.72;;;54.28;;
66095;SDS011;53861;53.422;14.530;2023-08-31T04:55:52;64.47;;;43.65;;
66095;SDS011;53861;53.422;14.530;2023-08-31T04:58:20;52.20;;;35.55;;
66095;SDS011;53861;53.422;14.530;2023-08-31T05:00:48;44.97;;;29.38;;
66095;SDS011;53861;53.422;14.530;2023-08-31T05:03:15;36.05;;;21.35;;
66095;SDS011;53861;53.422;14.530;2023-08-31T05:05:43;16.83;;;12.23;;
66095;SDS011;53861;53.422;14.530;2023-08-31T05:08:12;22.88;;;13.43;;
66095;SDS011;53861;53.422;14.530;2023-08-31T05:10:39;16.02;;;10.10;;
66095;SDS011;53861;53.422;14.530;2023-08-31T05:13:06;15.70;;;9.20;;
66095;SDS011;53861;53.422;14.530;2023-08-31T05:15:34;13.68;;;9.10;;
66095;SDS011;53861;53.422;14.530;2023-08-31T05:18:01;13.30;;;8.80;;
66095;SDS011;53861;53.422;14.530;2023-08-31T05:20:29;15.07;;;9.13;;
66095;SDS011;53861;53.422;14.530;2023-08-31T05:22:56;15.18;;;8.77;;
66095;SDS011;53861;53.422;14.530;2023-08-31T05:25:25;13.77;;;9.27;;
66095;SDS011;53861;53.422;14.530;2023-08-31T05:27:52;15.27;;;9.30;;
66095;SDS011;53861;53.422;14.530;2023-08-31T05:30:19;11.82;;;8.30;;
66095;SDS011;53861;53.422;14.530;2023-08-31T05:32:46;13.07;;;8.13;;
66095;SDS011;53861;53.422;14.530;2023-08-31T05:35:14;13.27;;;8.68;;
66095;SDS011;53861;53.422;14.530;2023-08-31T05:37:41;13.15;;;8.18;;
66095;SDS011;53861;53.422;14.530;2023-08-31T05:40:09;14.07;;;8.52;;
66095;SDS011;53861;53.422;14.530;2023-08-31T05:42:38;13.05;;;8.15;;
66095;SDS011;53861;53.422;14.530;2023-08-31T05:45:05;11.23;;;7.80;;
66095;SDS011;53861;53.422;14.530;2023-08-31T05:47:34;11.07;;;7.68;;
66095;SDS011;53861;53.422;14.530;2023-08-31T05:50:01;11.52;;;7.45;;
66095;SDS011;53861;53.422;14.530;2023-08-31T05:52:29;15.20;;;8.00;;
66095;SDS011;53861;53.422;14.530;2023-08-31T05:54:56;10.38;;;7.35;;
66095;SDS011;53861;53.422;14.530;2023-08-31T05:57:26;10.68;;;6.72;;
66095;SDS011;53861;53.422;14.530;2023-08-31T05:59:56;10.52;;;6.85;;
66095;SDS011;53861;53.422;14.530;2023-08-31T06:02:23;9.68;;;6.70;;
66095;SDS011;53861;53.422;14.530;2023-08-31T06:04:50;11.25;;;6.53;;
66095;SDS011;53861;53.422;14.530;2023-08-31T06:07:17;10.35;;;6.68;;
66095;SDS011;53861;53.422;14.530;2023-08-31T06:09:45;10.15;;;6.55;;
66095;SDS011;53861;53.422;14.530;2023-08-31T06:12:12;9.52;;;6.63;;
66095;SDS011;53861;53.422;14.530;2023-08-31T06:14:39;10.45;;;6.68;;
66095;SDS011;53861;53.422;14.530;2023-08-31T06:17:08;11.85;;;7.15;;
66095;SDS011;53861;53.422;14.530;2023-08-31T06:19:37;11.13;;;6.82;;
66095;SDS011;53861;53.422;14.530;2023-08-31T06:22:05;10.73;;;7.07;;
66095;SDS011;53861;53.422;14.530;2023-08-31T06:24:33;11.60;;;7.13;;
66095;SDS011;53861;53.422;14.530;2023-08-31T06:27:01;13.15;;;7.60;;
66095;SDS011;53861;53.422;14.530;2023-08-31T06:29:28;12.85;;;8.50;;
66095;SDS011;53861;53.422;14.530;2023-08-31T06:31:56;13.15;;;7.95;;
66095;SDS011;53861;53.422;14.530;2023-08-31T06:34:25;12.20;;;7.68;;
66095;SDS011;53861;53.422;14.530;2023-08-31T06:36:52;12.13;;;7.70;;
66095;SDS011;53861;53.422;14.530;2023-08-31T06:39:19;12.93;;;7.78;;
66095;SDS011;53861;53.422;14.530;2023-08-31T06:41:46;12.95;;;7.65;;
66095;SDS011;53861;53.422;14.530;2023-08-31T06:44:15;12.57;;;7.90;;
66095;SDS011;53861;53.422;14.530;2023-08-31T06:46:42;12.25;;;7.63;;
66095;SDS011;53861;53.422;14.530;2023-08-31T06:49:09;14.30;;;7.63;;
66095;SDS011;53861;53.422;14.530;2023-08-31T06:51:38;13.25;;;8.02;;
66095;SDS011;53861;53.422;14.530;2023-08-31T06:54:05;12.10;;;7.72;;
66095;SDS011;53861;53.422;14.530;2023-08-31T06:56:33;15.00;;;8.40;;
66095;SDS011;53861;53.422;14.530;2023-08-31T06:59:00;15.77;;;8.88;;
66095;SDS011;53861;53.422;14.530;2023-08-31T07:01:28;14.85;;;7.85;;
66095;SDS011;53861;53.422;14.530;2023-08-31T07:03:56;13.57;;;8.13;;
66095;SDS011;53861;53.422;14.530;2023-08-31T07:06:23;15.10;;;8.63;;
66095;SDS011;53861;53.422;14.530;2023-08-31T07:08:52;12.90;;;7.75;;
66095;SDS011;53861;53.422;14.530;2023-08-31T07:11:19;13.70;;;7.88;;
66095;SDS011;53861;53.422;14.530;2023-08-31T07:13:47;13.20;;;8.00;;
66095;SDS011;53861;53.422;14.530;2023-08-31T07:16:14;12.93;;;7.90;;
66095;SDS011;53861;53.422;14.530;2023-08-31T07:18:42;14.77;;;8.32;;
66095;SDS011;53861;53.422;14.530;2023-08-31T07:21:09;15.73;;;8.38;;
66095;SDS011;53861;53.422;14.530;2023-08-31T07:23:36;14.43;;;8.20;;
66095;SDS011;53861;53.422;14.530;2023-08-31T07:26:05;13.25;;;8.05;;
66095;SDS011;53861;53.422;14.530;2023-08-31T07:28:33;12.75;;;7.55;;
66095;SDS011;53861;53.422;14.530;2023-08-31T07:31:00;12.40;;;7.60;;
66095;SDS011;53861;53.422;14.530;2023-08-31T07:33:29;12.35;;;7.22;;
66095;SDS011;53861;53.422;14.530;2023-08-31T07:35:57;12.60;;;7.65;;
66095;SDS011;53861;53.422;14.530;2023-08-31T07:38:24;11.73;;;7.53;;
66095;SDS011;53861;53.422;14.530;2023-08-31T07:40:54;6.15;;;3.75;;
66095;SDS011;53861;53.422;14.530;2023-08-31T07:43:22;13.43;;;7.15;;
66095;SDS011;53861;53.422;14.530;2023-08-31T07:45:55;12.00;;;7.22;;
66095;SDS011;53861;53.422;14.530;2023-08-31T07:48:22;14.27;;;7.10;;
66095;SDS011;53861;53.422;14.530;2023-08-31T07:50:50;10.50;;;6.53;;
66095;SDS011;53861;53.422;14.530;2023-08-31T07:53:17;10.25;;;6.10;;
66095;SDS011;53861;53.422;14.530;2023-08-31T07:55:50;10.23;;;6.47;;
66095;SDS011;53861;53.422;14.530;2023-08-31T07:58:20;9.88;;;5.20;;
66095;SDS011;53861;53.422;14.530;2023-08-31T08:00:51;11.60;;;6.97;;
66095;SDS011;53861;53.422;14.530;2023-08-31T08:03:19;11.10;;;6.72;;
66095;SDS011;53861;53.422;14.530;2023-08-31T08:05:47;10.63;;;6.18;;
66095;SDS011;53861;53.422;14.530;2023-08-31T08:08:15;11.30;;;6.90;;
66095;SDS011;53861;53.422;14.530;2023-08-31T08:10:42;9.70;;;6.18;;
66095;SDS011;53861;53.422;14.530;2023-08-31T08:13:10;10.57;;;6.78;;
66095;SDS011;53861;53.422;14.530;2023-08-31T08:15:37;12.65;;;6.78;;
66095;SDS011;53861;53.422;14.530;2023-08-31T08:18:06;11.27;;;6.30;;
66095;SDS011;53861;53.422;14.530;2023-08-31T08:20:33;9.15;;;5.85;;
66095;SDS011;53861;53.422;14.530;2023-08-31T08:23:01;9.95;;;6.10;;
66095;SDS011;53861;53.422;14.530;2023-08-31T08:25:28;11.38;;;6.32;;
66095;SDS011;53861;53.422;14.530;2023-08-31T08:27:55;9.25;;;5.70;;
66095;SDS011;53861;53.422;14.530;2023-08-31T08:30:23;10.30;;;6.05;;
66095;SDS011;53861;53.422;14.530;2023-08-31T08:32:50;12.32;;;6.43;;
66095;SDS011;53861;53.422;14.530;2023-08-31T08:35:19;9.70;;;5.75;;
66095;SDS011;53861;53.422;14.530;2023-08-31T08:37:46;9.43;;;5.80;;
66095;SDS011;53861;53.422;14.530;2023-08-31T08:40:14;12.40;;;6.50;;
66095;SDS011;53861;53.422;14.530;2023-08-31T08:42:42;9.13;;;5.70;;
66095;SDS011;53861;53.422;14.530;2023-08-31T08:45:13;10.52;;;6.00;;
66095;SDS011;53861;53.422;14.530;2023-08-31T08:47:42;10.27;;;5.95;;
66095;SDS011;53861;53.422;14.530;2023-08-31T08:50:10;10.10;;;5.28;;
66095;SDS011;53861;53.422;14.530;2023-08-31T08:52:39;11.52;;;5.85;;
66095;SDS011;53861;53.422;14.530;2023-08-31T08:55:07;9.38;;;5.53;;
66095;SDS011;53861;53.422;14.530;2023-08-31T08:57:36;9.32;;;5.35;;
66095;SDS011;53861;53.422;14.530;2023-08-31T09:00:04;10.25;;;5.47;;
66095;SDS011;53861;53.422;14.530;2023-08-31T09:02:32;10.23;;;5.10;;
66095;SDS011;53861;53.422;14.530;2023-08-31T09:05:00;11.25;;;6.07;;
66095;SDS011;53861;53.422;14.530;2023-08-31T09:07:29;8.30;;;4.80;;
66095;SDS011;53861;53.422;14.530;2023-08-31T09:09:58;8.75;;;4.97;;
66095;SDS011;53861;53.422;14.530;2023-08-31T09:12:26;10.30;;;4.65;;
66095;SDS011;53861;53.422;14.530;2023-08-31T09:14:56;8.82;;;4.53;;
66095;SDS011;53861;53.422;14.530;2023-08-31T09:17:25;7.63;;;4.60;;
66095;SDS011;53861;53.422;14.530;2023-08-31T09:19:58;7.90;;;4.80;;
66095;SDS011;53861;53.422;14.530;2023-08-31T09:22:29;7.38;;;4.15;;
66095;SDS011;53861;53.422;14.530;2023-08-31T09:24:58;7.97;;;4.43;;
66095;SDS011;53861;53.422;14.530;2023-08-31T09:27:25;6.75;;;4.00;;
66095;SDS011;53861;53.422;14.530;2023-08-31T09:29:54;7.60;;;3.97;;
66095;SDS011;53861;53.422;14.530;2023-08-31T09:32:21;8.23;;;3.95;;
66095;SDS011;53861;53.422;14.530;2023-08-31T09:34:49;7.22;;;3.50;;
66095;SDS011;53861;53.422;14.530;2023-08-31T09:37:16;5.95;;;3.15;;
66095;SDS011;53861;53.422;14.530;2023-08-31T09:39:47;6.70;;;3.50;;
66095;SDS011;53861;53.422;14.530;2023-08-31T09:42:18;6.60;;;3.65;;
66095;SDS011;53861;53.422;14.530;2023-08-31T09:44:45;8.63;;;3.45;;
66095;SDS011;53861;53.422;14.530;2023-08-31T09:47:19;7.80;;;3.40;;
66095;SDS011;53861;53.422;14.530;2023-08-31T09:49:46;5.65;;;3.10;;
66095;SDS011;53861;53.422;14.530;2023-08-31T09:52:14;5.18;;;2.92;;
66095;SDS011;53861;53.422;14.530;2023-08-31T09:54:43;8.18;;;3.20;;
66095;SDS011;53861;53.422;14.530;2023-08-31T09:57:11;6.40;;;3.40;;
66095;SDS011;53861;53.422;14.530;2023-08-31T09:59:41;7.20;;;3.20;;
66095;SDS011;53861;53.422;14.530;2023-08-31T10:02:09;7.70;;;3.20;;
66095;SDS011;53861;53.422;14.530;2023-08-31T10:04:39;5.85;;;3.20;;
66095;SDS011;53861;53.422;14.530;2023-08-31T10:07:09;6.28;;;3.45;;
66095;SDS011;53861;53.422;14.530;2023-08-31T10:09:39;5.03;;;2.45;;
66095;SDS011;53861;53.422;14.530;2023-08-31T10:12:07;6.20;;;2.70;;
66095;SDS011;53861;53.422;14.530;2023-08-31T10:14:35;7.43;;;2.60;;
66095;SDS011;53861;53.422;14.530;2023-08-31T10:17:03;5.57;;;2.40;;
66095;SDS011;53861;53.422;14.530;2023-08-31T10:19:31;9.35;;;2.53;;
66095;SDS011;53861;53.422;14.530;2023-08-31T10:21:59;8.38;;;2.10;;
66095;SDS011;53861;53.422;14.530;2023-08-31T10:27:25;3.45;;;1.83;;
66095;SDS011;53861;53.422;14.530;2023-08-31T10:29:53;4.50;;;1.95;;
66095;SDS011;53861;53.422;14.530;2023-08-31T10:32:22;6.72;;;1.90;;
66095;SDS011;53861;53.422;14.530;2023-08-31T10:35:04;4.22;;;1.90;;
66095;SDS011;53861;53.422;14.530;2023-08-31T10:37:33;4.00;;;1.90;;
66095;SDS011;53861;53.422;14.530;2023-08-31T10:40:07;5.10;;;1.77;;
66095;SDS011;53861;53.422;14.530;2023-08-31T10:42:43;4.97;;;2.15;;
66095;SDS011;53861;53.422;14.530;2023-08-31T10:45:12;6.97;;;2.38;;
66095;SDS011;53861;53.422;14.530;2023-08-31T10:47:41;5.30;;;2.20;;
66095;SDS011;53861;53.422;14.530;2023-08-31T10:50:18;4.95;;;2.10;;
66095;SDS011;53861;53.422;14.530;2023-08-31T10:52:46;7.03;;;3.00;;
66095;SDS011;53861;53.422;14.530;2023-08-31T10:55:14;8.13;;;2.40;;
66095;SDS011;53861;53.422;14.530;2023-08-31T10:57:42;4.63;;;2.42;;
66095;SDS011;53861;53.422;14.530;2023-08-31T11:00:09;5.25;;;2.50;;
66095;SDS011;53861;53.422;14.530;2023-08-31T11:02:41;3.47;;;2.10;;
66095;SDS011;53861;53.422;14.530;2023-08-31T11:05:13;8.02;;;2.67;;
66095;SDS011;53861;53.422;14.530;2023-08-31T11:07:41;5.15;;;2.90;;
66095;SDS011;53861;53.422;14.530;2023-08-31T11:10:10;5.13;;;2.30;;
66095;SDS011;53861;53.422;14.530;2023-08-31T11:12:39;4.20;;;1.92;;
66095;SDS011;53861;53.422;14.530;2023-08-31T11:15:10;5.03;;;2.08;;
66095;SDS011;53861;53.422;14.530;2023-08-31T11:17:39;12.55;;;2.40;;
66095;SDS011;53861;53.422;14.530;2023-08-31T11:20:09;6.15;;;2.90;;
66095;SDS011;53861;53.422;14.530;2023-08-31T11:22:40;5.57;;;2.60;;
66095;SDS011;53861;53.422;14.530;2023-08-31T11:25:09;5.25;;;2.65;;
66095;SDS011;53861;53.422;14.530;2023-08-31T11:27:38;6.93;;;2.83;;
66095;SDS011;53861;53.422;14.530;2023-08-31T11:30:10;10.50;;;2.85;;
66095;SDS011;53861;53.422;14.530;2023-08-31T11:32:43;5.93;;;2.67;;
66095;SDS011;53861;53.422;14.530;2023-08-31T11:35:13;6.95;;;2.25;;
66095;SDS011;53861;53.422;14.530;2023-08-31T11:37:41;8.52;;;2.17;;
66095;SDS011;53861;53.422;14.530;2023-08-31T11:40:10;5.50;;;2.53;;
66095;SDS011;53861;53.422;14.530;2023-08-31T11:42:38;4.93;;;2.13;;
66095;SDS011;53861;53.422;14.530;2023-08-31T11:45:06;4.15;;;2.00;;
66095;SDS011;53861;53.422;14.530;2023-08-31T11:47:35;4.75;;;2.30;;
66095;SDS011;53861;53.422;14.530;2023-08-31T11:50:05;5.70;;;1.85;;
66095;SDS011;53861;53.422;14.530;2023-08-31T11:52:35;5.68;;;1.70;;
66095;SDS011;53861;53.422;14.530;2023-08-31T11:55:09;2.70;;;1.38;;
66095;SDS011;53861;53.422;14.530;2023-08-31T11:57:37;2.85;;;1.42;;
66095;SDS011;53861;53.422;14.530;2023-08-31T12:00:05;4.97;;;1.50;;
66095;SDS011;53861;53.422;14.530;2023-08-31T12:02:36;5.97;;;1.38;;
66095;SDS011;53861;53.422;14.530;2023-08-31T12:05:04;3.25;;;1.30;;
66095;SDS011;53861;53.422;14.530;2023-08-31T12:07:32;4.03;;;1.20;;
66095;SDS011;53861;53.422;14.530;2023-08-31T12:10:07;3.78;;;1.20;;
66095;SDS011;53861;53.422;14.530;2023-08-31T12:12:35;6.93;;;1.15;;
66095;SDS011;53861;53.422;14.530;2023-08-31T12:15:03;2.17;;;0.90;;
66095;SDS011;53861;53.422;14.530;2023-08-31T12:17:36;5.47;;;1.20;;
66095;SDS011;53861;53.422;14.530;2023-08-31T12:20:05;4.25;;;1.10;;
66095;SDS011;53861;53.422;14.530;2023-08-31T12:22:35;2.50;;;1.17;;
66095;SDS011;53861;53.422;14.530;2023-08-31T12:25:03;4.80;;;1.30;;
66095;SDS011;53861;53.422;14.530;2023-08-31T12:27:32;4.15;;;1.10;;
66095;SDS011;53861;53.422;14.530;2023-08-31T12:29:59;6.50;;;1.50;;
66095;SDS011;53861;53.422;14.530;2023-08-31T12:32:27;3.40;;;1.17;;
66095;SDS011;53861;53.422;14.530;2023-08-31T12:34:54;7.25;;;1.60;;
66095;SDS011;53861;53.422;14.530;2023-08-31T12:37:21;6.78;;;1.20;;
66095;SDS011;53861;53.422;14.530;2023-08-31T12:39:48;4.43;;;1.20;;
66095;SDS011;53861;53.422;14.530;2023-08-31T12:42:17;2.28;;;1.00;;
66095;SDS011;53861;53.422;14.530;2023-08-31T12:44:45;3.25;;;1.30;;
66095;SDS011;53861;53.422;14.530;2023-08-31T12:47:12;4.63;;;1.17;;
66095;SDS011;53861;53.422;14.530;2023-08-31T12:49:40;5.90;;;1.40;;
66095;SDS011;53861;53.422;14.530;2023-08-31T12:52:07;2.22;;;1.00;;
66095;SDS011;53861;53.422;14.530;2023-08-31T12:54:34;4.05;;;1.00;;
66095;SDS011;53861;53.422;14.530;2023-08-31T12:57:02;2.90;;;1.13;;
66095;SDS011;53861;53.422;14.530;2023-08-31T12:59:30;2.90;;;1.08;;
66095;SDS011;53861;53.422;14.530;2023-08-31T13:01:59;3.05;;;1.10;;
66095;SDS011;53861;53.422;14.530;2023-08-31T13:04:29;2.45;;;1.10;;
66095;SDS011;53861;53.422;14.530;2023-08-31T13:06:56;3.55;;;1.10;;
66095;SDS011;53861;53.422;14.530;2023-08-31T13:09:23;2.65;;;1.30;;
66095;SDS011;53861;53.422;14.530;2023-08-31T13:11:51;2.95;;;1.30;;
66095;SDS011;53861;53.422;14.530;2023-08-31T13:14:18;3.33;;;1.38;;
66095;SDS011;53861;53.422;14.530;2023-08-31T13:16:45;7.40;;;1.35;;
66095;SDS011;53861;53.422;14.530;2023-08-31T13:19:14;5.60;;;1.30;;
66095;SDS011;53861;53.422;14.530;2023-08-31T13:21:41;3.22;;;1.13;;
66095;SDS011;53861;53.422;14.530;2023-08-31T13:24:09;3.65;;;1.00;;
66095;SDS011;53861;53.422;14.530;2023-08-31T13:26:36;4.13;;;1.10;;
66095;SDS011;53861;53.422;14.530;2023-08-31T13:29:04;2.92;;;1.10;;
66095;SDS011;53861;53.422;14.530;2023-08-31T13:31:31;6.65;;;1.00;;
66095;SDS011;53861;53.422;14.530;2023-08-31T13:33:59;3.97;;;0.73;;
66095;SDS011;53861;53.422;14.530;2023-08-31T13:36:29;3.08;;;0.93;;
66095;SDS011;53861;53.422;14.530;2023-08-31T13:38:56;3.25;;;1.05;;
66095;SDS011;53861;53.422;14.530;2023-08-31T13:41:23;3.30;;;1.08;;
66095;SDS011;53861;53.422;14.530;2023-08-31T13:43:51;1.95;;;0.90;;
66095;SDS011;53861;53.422;14.530;2023-08-31T13:46:18;2.35;;;0.90;;
66095;SDS011;53861;53.422;14.530;2023-08-31T13:48:46;3.20;;;1.30;;
66095;SDS011;53861;53.422;14.530;2023-08-31T13:51:14;4.03;;;1.05;;
66095;SDS011;53861;53.422;14.530;2023-08-31T13:53:43;2.40;;;1.10;;
66095;SDS011;53861;53.422;14.530;2023-08-31T13:56:11;4.68;;;1.20;;
66095;SDS011;53861;53.422;14.530;2023-08-31T13:58:39;3.90;;;1.10;;
66095;SDS011;53861;53.422;14.530;2023-08-31T14:01:06;7.10;;;1.20;;
66095;SDS011;53861;53.422;14.530;2023-08-31T14:03:34;3.72;;;1.20;;
66095;SDS011;53861;53.422;14.530;2023-08-31T14:06:01;2.90;;;1.00;;
66095;SDS011;53861;53.422;14.530;2023-08-31T14:08:29;4.07;;;1.02;;
66095;SDS011;53861;53.422;14.530;2023-08-31T14:10:58;4.38;;;1.30;;
66095;SDS011;53861;53.422;14.530;2023-08-31T14:13:27;2.92;;;0.85;;
66095;SDS011;53861;53.422;14.530;2023-08-31T14:15:54;6.05;;;0.95;;
66095;SDS011;53861;53.422;14.530;2023-08-31T14:18:22;2.83;;;0.85;;
66095;SDS011;53861;53.422;14.530;2023-08-31T14:20:51;3.25;;;1.00;;
66095;SDS011;53861;53.422;14.530;2023-08-31T14:23:18;4.75;;;1.27;;
66095;SDS011;53861;53.422;14.530;2023-08-31T14:25:46;3.33;;;0.95;;
66095;SDS011;53861;53.422;14.530;2023-08-31T14:28:14;2.95;;;1.40;;
66095;SDS011;53861;53.422;14.530;2023-08-31T14:30:42;4.57;;;2.13;;
66095;SDS011;53861;53.422;14.530;2023-08-31T14:33:09;3.47;;;1.30;;
66095;SDS011;53861;53.422;14.530;2023-08-31T14:35:36;6.75;;;1.20;;
66095;SDS011;53861;53.422;14.530;2023-08-31T14:38:04;5.93;;;1.30;;